createdAt,value
2023-04-11T00:00:29.133Z,17.42
2023-04-11T00:03:00.247Z,14.52
2023-04-11T00:05:31.407Z,17.77
2023-04-11T00:07:57.872Z,14.60
2023-04-11T00:10:24.491Z,18.80
2023-04-11T00:12:51.034Z,16.33
2023-04-11T00:15:19.904Z,19.23
2023-04-11T00:17:46.378Z,20.98
2023-04-11T00:20:13.152Z,17.63
2023-04-11T00:22:39.673Z,18.90
2023-04-11T00:25:07.117Z,18.85
2023-04-11T00:27:33.577Z,17.40
2023-04-11T00:30:00.116Z,19.35
2023-04-11T00:32:27.088Z,20.67
2023-04-11T00:34:53.607Z,19.42
2023-04-11T00:37:23.012Z,16.92
2023-04-11T00:39:55.894Z,20.83
2023-04-11T00:42:22.310Z,19.70
2023-04-11T00:44:48.815Z,18.63
2023-04-11T00:47:15.549Z,18.77
2023-04-11T00:49:42.180Z,14.35
2023-04-11T00:52:08.653Z,18.55
2023-04-11T00:54:35.236Z,20.67
2023-04-11T00:57:04.085Z,19.27
2023-04-11T00:59:32.083Z,18.02
2023-04-11T01:01:59.182Z,21.55
2023-04-11T01:04:29.702Z,20.65
2023-04-11T01:06:59.529Z,20.55
2023-04-11T01:09:27.522Z,13.98
2023-04-11T01:11:54.163Z,14.48
2023-04-11T01:14:20.663Z,12.50
2023-04-11T01:16:48.522Z,8.90
2023-04-11T01:19:26.561Z,9.57
2023-04-11T01:21:54.376Z,6.80
2023-04-11T01:24:20.933Z,11.18
2023-04-11T01:26:47.614Z,11.55
2023-04-11T01:29:14.057Z,12.40
2023-04-11T01:31:40.794Z,10.02
2023-04-11T01:34:07.790Z,12.07
2023-04-11T01:36:34.304Z,7.90
2023-04-11T01:39:01.381Z,7.60
2023-04-11T01:41:29.684Z,8.00
2023-04-11T01:43:56.684Z,6.95
2023-04-11T01:46:23.579Z,11.38
2023-04-11T01:48:50.557Z,13.25
2023-04-11T01:51:17.146Z,6.03
2023-04-11T01:53:45.977Z,8.60
2023-04-11T01:56:12.885Z,6.68
2023-04-11T01:58:39.525Z,5.97
2023-04-11T02:01:06.121Z,5.15
2023-04-11T02:03:32.757Z,6.20
2023-04-11T02:05:59.312Z,9.43
2023-04-11T02:08:25.873Z,6.93
2023-04-11T02:10:52.349Z,9.18
2023-04-11T02:13:19.040Z,8.70
2023-04-11T02:15:45.537Z,8.68
2023-04-11T02:18:12.050Z,6.72
2023-04-11T02:20:40.566Z,7.47
2023-04-11T02:23:07.369Z,9.63
2023-04-11T02:25:33.889Z,5.53
2023-04-11T02:28:00.466Z,8.45
2023-04-11T02:30:26.919Z,5.18
2023-04-11T02:32:53.500Z,6.13
2023-04-11T02:35:20.158Z,6.88
2023-04-11T02:37:46.550Z,7.07
2023-04-11T02:40:13.123Z,8.80
2023-04-11T02:42:42.911Z,7.03
2023-04-11T02:45:09.813Z,6.05
2023-04-11T02:47:36.513Z,7.80
2023-04-11T02:50:03.115Z,7.03
2023-04-11T02:52:29.563Z,9.88
2023-04-11T02:54:56.145Z,10.82
2023-04-11T02:57:22.543Z,8.13
2023-04-11T02:59:49.021Z,9.52
2023-04-11T03:02:15.553Z,6.55
2023-04-11T03:04:42.590Z,7.68
2023-04-11T03:07:08.973Z,5.00
2023-04-11T03:09:35.510Z,12.35
2023-04-11T03:12:02.025Z,8.43
2023-04-11T03:14:28.501Z,11.50
2023-04-11T03:16:54.918Z,7.50
2023-04-11T03:19:21.426Z,7.85
2023-04-11T03:21:47.835Z,7.50
2023-04-11T03:24:14.279Z,7.40
2023-04-11T03:26:40.991Z,8.85
2023-04-11T03:29:07.403Z,4.35
2023-04-11T03:31:33.901Z,9.68
2023-04-11T03:34:00.407Z,7.32
2023-04-11T03:36:27.111Z,8.32
2023-04-11T03:38:53.786Z,8.48
2023-04-11T03:41:20.508Z,5.55
2023-04-11T03:43:46.973Z,7.20
2023-04-11T03:46:13.445Z,5.90
2023-04-11T03:48:39.911Z,4.85
2023-04-11T03:51:07.613Z,7.93
2023-04-11T03:53:34.179Z,8.40
2023-04-11T03:56:01.483Z,7.75
2023-04-11T03:58:28.023Z,8.05
2023-04-11T04:00:54.524Z,7.18
2023-04-11T04:03:21.185Z,9.00
2023-04-11T04:05:47.827Z,9.13
2023-04-11T04:08:14.283Z,7.75
2023-04-11T04:10:40.702Z,9.18
2023-04-11T04:13:07.176Z,6.50
2023-04-11T04:15:33.825Z,7.78
2023-04-11T04:18:00.414Z,7.78
2023-04-11T04:20:26.909Z,9.52
2023-04-11T04:22:53.903Z,7.00
2023-04-11T04:25:20.550Z,11.02
2023-04-11T04:27:47.605Z,14.50
2023-04-11T04:30:19.192Z,6.07
2023-04-11T04:32:46.062Z,6.10
2023-04-11T04:35:14.116Z,6.10
2023-04-11T04:37:45.600Z,7.53
2023-04-11T04:40:13.872Z,11.13
2023-04-11T04:42:44.105Z,11.77
2023-04-11T04:45:13.404Z,9.02
2023-04-11T04:47:39.978Z,8.13
2023-04-11T04:50:07.093Z,7.78
2023-04-11T04:52:33.665Z,9.55
2023-04-11T04:55:01.090Z,7.75
2023-04-11T04:57:28.825Z,6.15
2023-04-11T04:59:56.185Z,6.53
2023-04-11T05:02:22.909Z,6.50
2023-04-11T05:04:50.257Z,12.75
2023-04-11T05:07:18.187Z,7.95
2023-04-11T05:09:44.958Z,5.55
2023-04-11T05:12:11.593Z,8.43
2023-04-11T05:14:38.058Z,6.65
2023-04-11T05:17:04.919Z,7.18
2023-04-11T05:19:32.406Z,6.70
2023-04-11T05:21:58.941Z,3.63
2023-04-11T05:24:25.685Z,9.43
2023-04-11T05:26:52.157Z,11.15
2023-04-11T05:29:18.626Z,9.35
2023-04-11T05:31:45.239Z,5.95
2023-04-11T05:34:11.678Z,5.20
2023-04-11T05:36:38.126Z,5.15
2023-04-11T05:39:04.531Z,11.80
2023-04-11T05:41:31.152Z,10.73
2023-04-11T05:43:57.790Z,6.35
2023-04-11T05:46:24.727Z,10.38
2023-04-11T05:48:51.308Z,7.47
2023-04-11T05:51:17.752Z,12.38
2023-04-11T05:53:44.842Z,7.65
2023-04-11T05:56:12.892Z,9.45
2023-04-11T05:58:39.774Z,8.20
2023-04-11T06:01:07.220Z,5.75
2023-04-11T06:03:33.951Z,4.82
2023-04-11T06:06:00.655Z,8.23
2023-04-11T06:08:27.577Z,5.57
2023-04-11T06:10:54.040Z,4.72
2023-04-11T06:13:20.824Z,10.30
2023-04-11T06:15:47.458Z,6.72
2023-04-11T06:18:13.956Z,5.78
2023-04-11T06:20:40.444Z,8.07
2023-04-11T06:23:07.116Z,10.32
2023-04-11T06:25:33.622Z,9.00
2023-04-11T06:28:00.104Z,6.80
2023-04-11T06:30:26.581Z,8.25
2023-04-11T06:32:53.063Z,10.38
2023-04-11T06:35:20.445Z,6.68
2023-04-11T06:37:47.256Z,7.80
2023-04-11T06:40:13.842Z,8.77
2023-04-11T06:42:40.291Z,9.63
2023-04-11T06:45:07.195Z,12.43
2023-04-11T06:47:33.819Z,5.57
2023-04-11T06:50:00.370Z,9.80
2023-04-11T06:52:28.262Z,10.25
2023-04-11T06:54:54.856Z,8.40
2023-04-11T06:57:21.371Z,10.25
2023-04-11T06:59:47.866Z,10.30
2023-04-11T07:02:14.666Z,6.57
2023-04-11T07:04:41.947Z,10.27
2023-04-11T07:07:08.414Z,9.35
2023-04-11T07:09:36.327Z,10.23
2023-04-11T07:12:02.913Z,10.13
2023-04-11T07:14:29.420Z,9.38
2023-04-11T07:16:55.894Z,9.85
2023-04-11T07:19:22.437Z,5.93
2023-04-11T07:21:48.893Z,8.35
2023-04-11T07:24:18.442Z,11.02
2023-04-11T07:26:46.351Z,9.52
2023-04-11T07:29:14.738Z,10.18
2023-04-11T07:31:41.596Z,8.98
2023-04-11T07:34:08.128Z,11.48
2023-04-11T07:36:34.945Z,11.02
2023-04-11T07:39:01.548Z,7.53
2023-04-11T07:41:28.113Z,11.38
2023-04-11T07:43:54.689Z,8.57
2023-04-11T07:46:21.414Z,8.73
2023-04-11T07:48:47.944Z,6.18
2023-04-11T07:51:14.346Z,8.18
2023-04-11T07:53:40.815Z,10.18
2023-04-11T07:56:07.764Z,9.85
2023-04-11T07:58:34.210Z,8.50
2023-04-11T08:01:02.526Z,5.53
2023-04-11T08:03:29.246Z,9.00
2023-04-11T08:05:56.153Z,7.60
2023-04-11T08:08:22.625Z,8.70
2023-04-11T08:10:51.463Z,5.97
2023-04-11T08:13:18.793Z,6.05
2023-04-11T08:15:45.736Z,6.95
2023-04-11T08:18:12.612Z,7.07
2023-04-11T08:20:40.631Z,7.45
2023-04-11T08:23:08.702Z,7.13
2023-04-11T08:25:36.534Z,9.50
2023-04-11T08:28:04.599Z,8.90
2023-04-11T08:30:31.011Z,7.80
2023-04-11T08:32:57.617Z,8.27
2023-04-11T08:35:24.196Z,7.18
2023-04-11T08:37:50.664Z,6.47
2023-04-11T08:40:17.137Z,8.30
2023-04-11T08:42:44.008Z,6.80
2023-04-11T08:45:11.100Z,7.18
2023-04-11T08:47:37.989Z,7.22
2023-04-11T08:50:05.979Z,11.25
2023-04-11T08:52:33.447Z,8.65
2023-04-11T08:55:00.528Z,4.97
2023-04-11T08:57:31.403Z,8.77
2023-04-11T09:00:00.774Z,4.43
2023-04-11T09:02:27.815Z,5.55
2023-04-11T09:04:55.030Z,5.32
2023-04-11T09:07:21.990Z,7.45
2023-04-11T09:09:48.418Z,7.47
2023-04-11T09:12:14.956Z,6.88
2023-04-11T09:14:41.935Z,6.03
2023-04-11T09:17:13.653Z,9.88
2023-04-11T09:19:42.281Z,6.25
2023-04-11T09:22:08.726Z,6.75
2023-04-11T09:24:36.593Z,7.68
2023-04-11T09:27:15.555Z,5.03
2023-04-11T09:29:48.445Z,6.80
2023-04-11T09:32:35.311Z,6.13
2023-04-11T09:35:20.244Z,8.10
2023-04-11T09:37:53.720Z,7.25
2023-04-11T09:40:23.100Z,5.32
2023-04-11T09:42:57.235Z,8.05
2023-04-11T09:45:24.573Z,8.15
2023-04-11T09:47:53.468Z,6.35
2023-04-11T09:50:20.477Z,6.30
2023-04-11T09:52:47.275Z,7.78
2023-04-11T09:55:16.424Z,4.75
2023-04-11T09:57:48.119Z,5.93
2023-04-11T10:00:18.323Z,6.45
2023-04-11T10:02:48.835Z,6.55
2023-04-11T10:05:18.016Z,5.72
2023-04-11T10:07:46.771Z,7.10
2023-04-11T10:10:19.815Z,4.80
2023-04-11T10:12:46.623Z,6.82
2023-04-11T10:15:13.927Z,7.15
2023-04-11T10:17:43.318Z,6.70
2023-04-11T10:20:39.119Z,4.43
2023-04-11T10:23:05.875Z,6.97
2023-04-11T10:25:50.897Z,5.95
2023-04-11T10:28:38.457Z,5.70
2023-04-11T10:31:17.250Z,8.23
2023-04-11T10:34:16.363Z,5.95
2023-04-11T10:37:04.027Z,5.95
2023-04-11T10:39:52.047Z,4.35
2023-04-11T10:42:31.804Z,4.60
2023-04-11T10:45:13.508Z,5.30
2023-04-11T10:47:40.091Z,4.95
2023-04-11T10:50:29.909Z,4.80
2023-04-11T10:53:06.762Z,4.75
2023-04-11T10:55:50.611Z,3.40
2023-04-11T10:58:22.007Z,5.85
2023-04-11T11:00:51.433Z,7.28
2023-04-11T11:03:30.219Z,5.13
2023-04-11T11:06:06.324Z,7.00
2023-04-11T11:08:32.748Z,8.15
2023-04-11T11:11:03.805Z,6.38
2023-04-11T11:13:39.759Z,6.88
2023-04-11T11:16:07.604Z,8.68
2023-04-11T11:18:34.408Z,3.47
2023-04-11T11:21:01.031Z,5.38
2023-04-11T11:23:27.493Z,6.40
2023-04-11T11:25:55.148Z,5.57
2023-04-11T11:28:21.999Z,5.53
2023-04-11T11:30:57.685Z,6.43
2023-04-11T11:33:26.690Z,7.13
2023-04-11T11:35:57.082Z,3.95
2023-04-11T11:38:27.069Z,5.50
2023-04-11T11:40:53.961Z,4.75
2023-04-11T11:43:20.477Z,6.55
2023-04-11T11:45:47.342Z,4.80
2023-04-11T11:48:24.001Z,7.32
2023-04-11T11:50:57.668Z,5.43
2023-04-11T11:53:24.876Z,5.07
2023-04-11T11:55:51.611Z,4.85
2023-04-11T11:58:19.610Z,5.25
2023-04-11T12:00:50.416Z,6.07
2023-04-11T12:03:18.832Z,5.03
2023-04-11T12:05:47.599Z,6.65
2023-04-11T12:08:14.737Z,5.60
2023-04-11T12:10:43.575Z,6.18
2023-04-11T12:13:16.008Z,6.78
2023-04-11T12:15:52.526Z,7.15
2023-04-11T12:18:23.179Z,4.40
2023-04-11T12:20:50.339Z,7.32
2023-04-11T12:23:17.802Z,7.15
2023-04-11T12:25:44.377Z,5.35
2023-04-11T12:28:11.337Z,4.65
2023-04-11T12:30:37.907Z,7.55
2023-04-11T12:33:04.688Z,8.93
2023-04-11T12:35:32.186Z,8.32
2023-04-11T12:37:58.740Z,5.07
2023-04-11T12:40:25.686Z,7.20
2023-04-11T12:42:56.150Z,4.53
2023-04-11T12:45:24.208Z,5.18
2023-04-11T12:47:51.011Z,5.63
2023-04-11T12:50:17.957Z,6.78
2023-04-11T12:52:44.489Z,5.50
2023-04-11T12:55:11.098Z,7.85
2023-04-11T12:57:37.738Z,7.20
2023-04-11T13:00:08.072Z,5.07
2023-04-11T13:02:42.069Z,7.15
2023-04-11T13:05:11.756Z,4.57
2023-04-11T13:07:39.102Z,4.00
2023-04-11T13:10:08.956Z,4.57
2023-04-11T13:12:41.125Z,7.55
2023-04-11T13:15:09.407Z,4.85
2023-04-11T13:17:35.982Z,5.00
2023-04-11T13:20:03.425Z,8.68
2023-04-11T13:22:29.887Z,4.72
2023-04-11T13:24:56.287Z,5.40
2023-04-11T13:27:22.999Z,5.18
2023-04-11T13:29:49.493Z,4.18
2023-04-11T13:32:16.063Z,3.40
2023-04-11T13:34:42.538Z,5.70
2023-04-11T13:37:09.075Z,3.72
2023-04-11T13:39:35.515Z,6.90
2023-04-11T13:42:01.984Z,4.60
2023-04-11T13:44:28.462Z,5.65
2023-04-11T13:46:54.927Z,4.53
2023-04-11T13:49:21.311Z,5.25
2023-04-11T13:51:47.743Z,6.78
2023-04-11T13:54:14.186Z,6.35
2023-04-11T13:56:41.170Z,6.30
2023-04-11T13:59:07.580Z,3.88
2023-04-11T14:01:34.158Z,4.45
2023-04-11T14:04:01.257Z,5.90
2023-04-11T14:06:28.313Z,5.13
2023-04-11T14:08:54.743Z,10.55
2023-04-11T14:11:21.614Z,4.95
2023-04-11T14:13:48.878Z,4.32
2023-04-11T14:16:15.416Z,5.20
2023-04-11T14:18:42.150Z,4.53
2023-04-11T14:21:08.841Z,4.78
2023-04-11T14:23:35.980Z,7.88
2023-04-11T14:26:02.783Z,5.57
2023-04-11T14:28:29.241Z,4.13
2023-04-11T14:30:56.500Z,6.05
2023-04-11T14:33:23.451Z,4.57
2023-04-11T14:35:50.705Z,8.05
2023-04-11T14:38:17.181Z,7.05
2023-04-11T14:40:44.397Z,6.25
2023-04-11T14:43:11.235Z,7.95
2023-04-11T14:45:37.797Z,4.43
2023-04-11T14:48:04.632Z,4.30
2023-04-11T14:50:31.215Z,4.57
2023-04-11T14:52:57.812Z,3.70
2023-04-11T14:55:24.231Z,6.22
2023-04-11T14:57:55.239Z,3.22
2023-04-11T15:00:22.337Z,4.00
2023-04-11T15:02:51.954Z,4.80
2023-04-11T15:05:19.615Z,5.80
2023-04-11T15:07:47.839Z,5.07
2023-04-11T15:10:16.305Z,4.90
2023-04-11T15:12:42.754Z,4.88
2023-04-11T15:15:11.082Z,4.90
2023-04-11T15:17:40.756Z,4.90
2023-04-11T15:20:09.532Z,4.63
2023-04-11T15:22:39.495Z,4.88
2023-04-11T15:25:08.273Z,6.72
2023-04-11T15:27:34.846Z,5.60
2023-04-11T15:30:02.277Z,4.30
2023-04-11T15:32:28.953Z,5.85
2023-04-11T15:34:56.722Z,6.00
2023-04-11T15:37:23.251Z,3.80
2023-04-11T15:39:50.007Z,5.50
2023-04-11T15:42:16.865Z,3.92
2023-04-11T15:44:46.408Z,5.53
2023-04-11T15:47:12.938Z,5.15
2023-04-11T15:49:39.781Z,5.38
2023-04-11T15:52:06.920Z,6.28
2023-04-11T15:54:33.428Z,6.40
2023-04-11T15:56:59.895Z,8.20
2023-04-11T15:59:26.950Z,6.18
2023-04-11T16:01:53.491Z,5.38
2023-04-11T16:04:20.543Z,5.80
2023-04-11T16:06:47.280Z,5.22
2023-04-11T16:09:13.740Z,7.43
2023-04-11T16:11:40.563Z,5.55
2023-04-11T16:14:07.128Z,4.25
2023-04-11T16:16:33.622Z,5.15
2023-04-11T16:19:00.227Z,5.82
2023-04-11T16:21:27.203Z,5.65
2023-04-11T16:23:54.860Z,3.78
2023-04-11T16:26:21.672Z,6.90
2023-04-11T16:28:48.848Z,4.28
2023-04-11T16:31:21.682Z,3.42
2023-04-11T16:33:48.180Z,4.15
2023-04-11T16:36:14.721Z,3.13
2023-04-11T16:38:41.146Z,5.57
2023-04-11T16:41:07.656Z,8.00
2023-04-11T16:43:34.122Z,5.13
2023-04-11T16:46:00.703Z,5.18
2023-04-11T16:48:27.246Z,3.65
2023-04-11T16:50:53.744Z,6.35
2023-04-11T16:53:20.373Z,5.28
2023-04-11T16:55:46.879Z,7.05
2023-04-11T16:58:13.307Z,3.38
2023-04-11T17:00:39.740Z,6.07
2023-04-11T17:03:07.225Z,6.43
2023-04-11T17:05:36.557Z,3.90
2023-04-11T17:08:03.000Z,6.90
2023-04-11T17:10:29.609Z,6.88
2023-04-11T17:12:58.227Z,3.25
2023-04-11T17:15:24.652Z,5.00
2023-04-11T17:17:51.175Z,5.32
2023-04-11T17:20:17.789Z,5.72
2023-04-11T17:22:44.915Z,7.72
2023-04-11T17:25:11.795Z,5.28
2023-04-11T17:27:38.821Z,4.63
2023-04-11T17:30:05.988Z,6.82
2023-04-11T17:32:32.558Z,5.82
2023-04-11T17:35:00.675Z,9.07
2023-04-11T17:37:27.711Z,6.22
2023-04-11T17:39:54.550Z,11.68
2023-04-11T17:42:21.311Z,7.63
2023-04-11T17:44:47.802Z,5.25
2023-04-11T17:47:14.280Z,6.75
2023-04-11T17:49:40.777Z,5.43
2023-04-11T17:52:07.230Z,9.40
2023-04-11T17:54:34.071Z,6.00
2023-04-11T17:57:01.159Z,6.82
2023-04-11T17:59:27.731Z,5.80
2023-04-11T18:01:55.933Z,9.38
2023-04-11T18:04:23.193Z,7.75
2023-04-11T18:06:49.737Z,7.47
2023-04-11T18:09:16.980Z,5.75
2023-04-11T18:11:43.869Z,5.65
2023-04-11T18:14:10.699Z,4.70
2023-04-11T18:16:39.123Z,6.72
2023-04-11T18:19:05.990Z,5.88
2023-04-11T18:21:32.581Z,11.98
2023-04-11T18:23:59.141Z,6.63
2023-04-11T18:26:25.857Z,7.55
2023-04-11T18:28:52.340Z,8.05
2023-04-11T18:31:18.909Z,10.75
2023-04-11T18:33:47.554Z,8.75
2023-04-11T18:36:14.237Z,14.27
2023-04-11T18:38:40.927Z,7.35
2023-04-11T18:41:08.005Z,9.07
2023-04-11T18:43:35.621Z,8.38
2023-04-11T18:46:02.221Z,9.73
2023-04-11T18:48:28.738Z,10.15
2023-04-11T18:51:03.502Z,6.28
2023-04-11T18:53:30.875Z,8.15
2023-04-11T18:55:57.897Z,8.65
2023-04-11T18:58:26.150Z,7.50
2023-04-11T19:00:53.691Z,8.85
2023-04-11T19:03:21.245Z,7.40
2023-04-11T19:05:48.230Z,7.78
2023-04-11T19:08:14.892Z,8.57
2023-04-11T19:10:41.396Z,9.45
2023-04-11T19:13:07.936Z,8.88
2023-04-11T19:15:34.373Z,8.00
2023-04-11T19:18:01.714Z,12.32
2023-04-11T19:20:29.428Z,9.80
2023-04-11T19:22:55.921Z,9.25
2023-04-11T19:25:22.407Z,9.50
2023-04-11T19:27:49.672Z,17.90
2023-04-11T19:30:16.345Z,13.45
2023-04-11T19:32:47.654Z,12.98
2023-04-11T19:35:14.689Z,13.18
2023-04-11T19:37:41.652Z,8.93
2023-04-11T19:40:11.067Z,10.68
2023-04-11T19:42:39.135Z,9.38
2023-04-11T19:45:06.549Z,11.38
2023-04-11T19:47:33.150Z,9.15
2023-04-11T19:50:00.904Z,7.15
2023-04-11T19:52:27.943Z,10.38
2023-04-11T19:54:55.773Z,7.80
2023-04-11T19:57:23.323Z,8.57
2023-04-11T19:59:50.583Z,10.85
2023-04-11T20:02:17.190Z,7.50
2023-04-11T20:04:44.602Z,11.27
2023-04-11T20:07:11.460Z,9.00
2023-04-11T20:09:37.936Z,6.07
2023-04-11T20:12:06.197Z,8.15
2023-04-11T20:14:33.308Z,11.43
2023-04-11T20:16:59.974Z,9.02
2023-04-11T20:19:31.659Z,8.20
2023-04-11T20:22:01.146Z,7.03
2023-04-11T20:24:27.815Z,6.22
2023-04-11T20:26:54.948Z,5.68
2023-04-11T20:29:24.648Z,8.88
2023-04-11T20:31:51.123Z,7.80
2023-04-11T20:34:17.738Z,5.65
2023-04-11T20:36:44.541Z,8.73
2023-04-11T20:39:11.020Z,5.68
2023-04-11T20:41:40.298Z,7.47
2023-04-11T20:44:06.866Z,6.90
2023-04-11T20:46:39.282Z,7.05
2023-04-11T20:49:05.816Z,5.93
2023-04-11T20:51:32.203Z,7.38
2023-04-11T20:53:58.930Z,5.93
2023-04-11T20:56:25.444Z,8.75
2023-04-11T20:58:51.897Z,6.47
2023-04-11T21:01:18.340Z,7.10
2023-04-11T21:03:45.160Z,5.57
2023-04-11T21:06:11.687Z,4.72
2023-04-11T21:08:38.145Z,8.18
2023-04-11T21:11:05.643Z,6.60
2023-04-11T21:13:32.208Z,5.68
2023-04-11T21:15:58.852Z,8.15
2023-04-11T21:18:25.486Z,8.07
2023-04-11T21:20:51.896Z,8.52
2023-04-11T21:23:19.657Z,6.25
2023-04-11T21:25:46.933Z,9.63
2023-04-11T21:28:13.579Z,9.32
2023-04-11T21:30:40.068Z,4.72
2023-04-11T21:33:06.633Z,8.07
2023-04-11T21:35:33.225Z,7.38
2023-04-11T21:37:59.762Z,6.15
2023-04-11T21:40:26.280Z,9.15
2023-04-11T21:42:53.170Z,6.93
2023-04-11T21:45:19.588Z,6.95
2023-04-11T21:47:46.785Z,10.63
2023-04-11T21:50:13.353Z,7.40
2023-04-11T21:52:39.872Z,8.02
2023-04-11T21:55:08.851Z,6.57
2023-04-11T21:57:35.757Z,5.72
2023-04-11T22:00:02.502Z,8.05
2023-04-11T22:02:29.201Z,8.60
2023-04-11T22:07:31.665Z,6.18
2023-04-11T22:10:03.838Z,7.07
2023-04-11T22:12:30.917Z,5.22
2023-04-11T22:14:57.404Z,7.30
2023-04-11T22:17:23.904Z,4.90
2023-04-11T22:19:50.389Z,6.75
2023-04-11T22:22:17.415Z,10.75
2023-04-11T22:24:46.322Z,7.43
2023-04-11T22:27:13.672Z,6.55
2023-04-11T22:29:41.313Z,6.38
2023-04-11T22:32:08.183Z,7.97
2023-04-11T22:34:34.810Z,6.13
2023-04-11T22:37:01.341Z,5.50
2023-04-11T22:39:27.778Z,5.45
2023-04-11T22:41:54.575Z,7.22
2023-04-11T22:44:21.084Z,4.97
2023-04-11T22:47:06.505Z,7.85
2023-04-11T22:49:40.244Z,8.32
2023-04-11T23:03:02.594Z,8.70
2023-04-11T23:56:19.426Z,9.73
2023-04-11T23:58:45.951Z,6.43
